createdAt,value
2018-12-21T03:16:01.050Z,1008.23
2018-12-21T03:17:00.961Z,1008.22
2018-12-21T03:18:00.991Z,1008.23
2018-12-21T03:19:00.994Z,1008.21
2018-12-21T03:20:01.060Z,1008.22
2018-12-21T03:21:00.979Z,1008.22
2018-12-21T03:22:01.017Z,1008.22
2018-12-21T03:23:01.020Z,1008.22
2018-12-21T03:24:01.010Z,1008.19
2018-12-21T03:25:01.019Z,1008.22
2018-12-21T03:26:01.045Z,1008.20
2018-12-21T03:27:01.001Z,1008.19
2018-12-21T03:28:01.014Z,1008.22
2018-12-21T03:29:01.012Z,1008.22
2018-12-21T03:30:00.997Z,1008.23
2018-12-21T03:31:01.081Z,1008.21
2018-12-21T03:32:01.064Z,1008.22
2018-12-21T03:33:01.039Z,1008.20
2018-12-21T03:34:01.067Z,1008.19
2018-12-21T03:35:01.076Z,1008.19
2018-12-21T03:36:01.025Z,1008.17
2018-12-21T03:37:01.105Z,1008.22
2018-12-21T03:38:01.062Z,1008.18
2018-12-21T03:39:01.061Z,1008.17
2018-12-21T03:40:01.077Z,1008.17
2018-12-21T03:41:01.049Z,1008.12
2018-12-21T03:42:01.109Z,1008.11
2018-12-21T03:43:01.087Z,1008.12
2018-12-21T03:44:01.078Z,1008.13
2018-12-21T03:45:01.129Z,1008.11
2018-12-21T03:46:01.119Z,1008.09
2018-12-21T03:47:01.144Z,1008.10
2018-12-21T03:48:01.112Z,1008.11
2018-12-21T03:49:01.101Z,1008.11
2018-12-21T03:50:01.161Z,1008.04
2018-12-21T03:51:01.145Z,1008.00
2018-12-21T03:52:01.143Z,1008.04
2018-12-21T03:53:01.159Z,1008.00
2018-12-21T03:54:01.145Z,1008.01
2018-12-21T03:55:01.134Z,1007.98
2018-12-21T03:56:01.146Z,1007.99
2018-12-21T03:57:01.150Z,1008.01
2018-12-21T03:58:01.224Z,1007.99
2018-12-21T03:59:01.163Z,1007.94
2018-12-21T04:00:01.180Z,1007.98
2018-12-21T04:01:01.170Z,1007.99
2018-12-21T04:02:01.182Z,1007.93
2018-12-21T04:03:01.190Z,1007.95
2018-12-21T04:04:01.183Z,1007.90
2018-12-21T04:05:01.191Z,1007.96
2018-12-21T04:06:01.188Z,1007.94
2018-12-21T04:07:01.217Z,1007.91
2018-12-21T04:08:01.229Z,1007.94
2018-12-21T04:09:01.237Z,1007.91
2018-12-21T04:10:01.218Z,1007.87
2018-12-21T04:11:01.203Z,1007.89
2018-12-21T04:12:01.248Z,1007.88
2018-12-21T04:13:01.201Z,1007.88
2018-12-21T04:14:01.263Z,1007.82
2018-12-21T04:15:01.217Z,1007.86
2018-12-21T04:16:01.258Z,1007.86
2018-12-21T04:17:01.257Z,1007.83
2018-12-21T04:18:01.239Z,1007.83
2018-12-21T04:19:01.283Z,1007.81
2018-12-21T04:20:01.322Z,1007.80
2018-12-21T04:21:01.278Z,1007.85
2018-12-21T04:22:01.277Z,1007.85
2018-12-21T04:23:01.292Z,1007.84
2018-12-21T04:24:01.330Z,1007.83
2018-12-21T04:25:01.337Z,1007.84
2018-12-21T04:26:01.363Z,1007.85
2018-12-21T04:27:01.340Z,1007.82
2018-12-21T04:28:01.342Z,1007.82
2018-12-21T04:29:01.301Z,1007.81
2018-12-21T04:30:01.361Z,1007.77
2018-12-21T04:31:01.333Z,1007.79
2018-12-21T04:32:01.307Z,1007.78
2018-12-21T04:33:01.327Z,1007.80
2018-12-21T04:34:01.326Z,1007.76
2018-12-21T04:35:01.353Z,1007.76
2018-12-21T04:36:01.408Z,1007.76
2018-12-21T04:37:01.373Z,1007.76
2018-12-21T04:38:01.350Z,1007.78
2018-12-21T04:39:01.369Z,1007.78
2018-12-21T04:40:01.350Z,1007.77
2018-12-21T04:41:01.349Z,1007.79
2018-12-21T04:42:01.419Z,1007.80
2018-12-21T04:43:01.362Z,1007.74
2018-12-21T04:44:01.385Z,1007.78
2018-12-21T04:45:01.381Z,1007.78
2018-12-21T04:46:01.430Z,1007.74
2018-12-21T04:47:01.405Z,1007.75
2018-12-21T04:48:01.447Z,1007.75
2018-12-21T04:49:01.410Z,1007.78
2018-12-21T04:50:01.450Z,1007.75
2018-12-21T04:51:01.430Z,1007.77
2018-12-21T04:52:01.462Z,1007.75
2018-12-21T04:53:01.461Z,1007.70
2018-12-21T04:54:01.437Z,1007.71
2018-12-21T04:55:01.454Z,1007.67
2018-12-21T04:56:01.451Z,1007.70
2018-12-21T04:57:01.450Z,1007.65
2018-12-21T04:58:01.475Z,1007.63
2018-12-21T04:59:01.539Z,1007.67
2018-12-21T05:00:01.476Z,1007.66
2018-12-21T05:01:01.482Z,1007.64
2018-12-21T05:02:01.518Z,1007.65
2018-12-21T05:03:01.519Z,1007.62
2018-12-21T05:04:01.522Z,1007.61
2018-12-21T05:05:01.603Z,1007.59
2018-12-21T05:06:01.526Z,1007.61
2018-12-21T05:07:01.550Z,1007.58
2018-12-21T05:08:01.488Z,1007.59
2018-12-21T05:09:01.551Z,1007.61
2018-12-21T05:10:01.518Z,1007.64
2018-12-21T05:11:01.526Z,1007.63
2018-12-21T05:12:01.549Z,1007.63
2018-12-21T05:13:01.523Z,1007.62
2018-12-21T05:14:01.546Z,1007.60
2018-12-21T05:15:01.546Z,1007.62
2018-12-21T05:16:01.554Z,1007.63
2018-12-21T05:17:01.634Z,1007.60
2018-12-21T05:18:01.549Z,1007.60
2018-12-21T05:19:01.589Z,1007.57
2018-12-21T05:20:01.603Z,1007.56
2018-12-21T05:21:01.582Z,1007.57
2018-12-21T05:22:01.583Z,1007.58
2018-12-21T05:23:01.596Z,1007.58
2018-12-21T05:24:01.595Z,1007.55
2018-12-21T05:25:01.599Z,1007.54
2018-12-21T05:26:01.639Z,1007.56
2018-12-21T05:27:01.607Z,1007.56
2018-12-21T05:28:01.605Z,1007.54
2018-12-21T05:29:01.621Z,1007.56
2018-12-21T05:30:01.656Z,1007.52
2018-12-21T05:31:01.665Z,1007.51
2018-12-21T05:32:01.728Z,1007.47
2018-12-21T05:33:01.656Z,1007.51
2018-12-21T05:34:01.648Z,1007.49
2018-12-21T05:35:01.687Z,1007.50
2018-12-21T05:36:01.656Z,1007.47
2018-12-21T05:37:01.647Z,1007.53
2018-12-21T05:38:01.685Z,1007.50
2018-12-21T05:39:01.715Z,1007.47
2018-12-21T05:40:01.677Z,1007.49
2018-12-21T05:41:01.691Z,1007.46
2018-12-21T05:42:01.723Z,1007.46
2018-12-21T05:43:01.687Z,1007.47
2018-12-21T05:44:01.694Z,1007.47
2018-12-21T05:45:01.695Z,1007.48
2018-12-21T05:46:01.677Z,1007.47
2018-12-21T05:47:01.717Z,1007.41
2018-12-21T05:48:01.752Z,1007.44
2018-12-21T05:49:01.723Z,1007.43
2018-12-21T05:50:01.727Z,1007.42
2018-12-21T05:51:01.720Z,1007.39
2018-12-21T05:52:01.741Z,1007.38
2018-12-21T05:53:01.766Z,1007.35
2018-12-21T05:54:01.787Z,1007.32
2018-12-21T05:55:01.763Z,1007.30
2018-12-21T05:56:01.753Z,1007.28
2018-12-21T05:57:01.736Z,1007.26
2018-12-21T05:58:01.800Z,1007.26
2018-12-21T05:59:01.762Z,1007.27
2018-12-21T06:00:01.774Z,1007.25
2018-12-21T06:01:01.762Z,1007.20
2018-12-21T06:02:01.780Z,1007.20
2018-12-21T06:03:01.792Z,1007.18
2018-12-21T06:04:01.804Z,1007.24
2018-12-21T06:05:01.800Z,1007.21
2018-12-21T06:06:01.797Z,1007.19
2018-12-21T06:07:01.812Z,1007.10
2018-12-21T06:08:02.868Z,1007.14
2018-12-21T06:09:01.910Z,1007.09
2018-12-21T06:10:01.873Z,1007.07
2018-12-21T06:11:02.205Z,1007.02
2018-12-21T06:12:01.840Z,1007.01
2018-12-21T06:13:01.849Z,1006.98
2018-12-21T06:14:01.873Z,1006.98
2018-12-21T06:15:01.851Z,1006.95
2018-12-21T06:16:01.855Z,1006.93
2018-12-21T06:17:01.859Z,1006.94
2018-12-21T06:18:01.849Z,1006.95
2018-12-21T06:19:02.058Z,1006.92
2018-12-21T06:20:01.924Z,1006.94
2018-12-21T06:21:01.889Z,1006.90
2018-12-21T06:22:01.890Z,1006.88
2018-12-21T06:23:09.267Z,1006.86
2018-12-21T06:24:02.124Z,1006.85
2018-12-21T06:25:02.047Z,1006.79
2018-12-21T06:26:01.930Z,1006.77
2018-12-21T06:27:01.943Z,1006.75
2018-12-21T06:28:01.946Z,1006.77
2018-12-21T06:29:01.945Z,1006.71
2018-12-21T06:30:01.937Z,1006.71
2018-12-21T06:31:01.934Z,1006.70
2018-12-21T06:32:01.938Z,1006.68
2018-12-21T06:33:02.061Z,1006.65
2018-12-21T06:34:01.996Z,1006.59
2018-12-21T06:35:01.965Z,1006.61
2018-12-21T06:36:01.992Z,1006.57
2018-12-21T06:37:02.080Z,1006.58
2018-12-21T06:38:02.138Z,1006.54
2018-12-21T06:39:01.960Z,1006.55
2018-12-21T06:40:01.985Z,1006.51
2018-12-21T06:41:01.988Z,1006.56
2018-12-21T06:42:02.085Z,1006.51
2018-12-21T06:43:02.014Z,1006.50
2018-12-21T06:44:02.019Z,1006.47
2018-12-21T06:45:02.015Z,1006.50
2018-12-21T06:46:02.030Z,1006.44
2018-12-21T06:47:02.176Z,1006.42
2018-12-21T06:48:02.055Z,1006.40
2018-12-21T06:49:02.048Z,1006.43
2018-12-21T06:50:02.026Z,1006.47
2018-12-21T06:51:02.033Z,1006.45
2018-12-21T06:52:02.037Z,1006.44
2018-12-21T06:53:02.114Z,1006.40
2018-12-21T06:54:02.069Z,1006.41
2018-12-21T06:55:02.042Z,1006.43
2018-12-21T06:56:02.098Z,1006.43
2018-12-21T06:57:02.068Z,1006.45
2018-12-21T06:58:02.077Z,1006.45
2018-12-21T06:59:02.079Z,1006.46
2018-12-21T07:00:02.081Z,1006.44
2018-12-21T07:01:02.069Z,1006.40
2018-12-21T07:02:02.142Z,1006.42
2018-12-21T07:03:02.101Z,1006.41
2018-12-21T07:04:02.084Z,1006.38
2018-12-21T07:05:02.099Z,1006.35
2018-12-21T07:06:02.141Z,1006.40
2018-12-21T07:07:02.133Z,1006.38
2018-12-21T07:08:02.155Z,1006.37
2018-12-21T07:09:02.238Z,1006.37
2018-12-21T07:10:02.483Z,1006.34
2018-12-21T07:11:02.152Z,1006.36
2018-12-21T07:12:02.171Z,1006.30
2018-12-21T07:13:02.194Z,1006.28
2018-12-21T07:14:02.188Z,1006.28
2018-12-21T07:15:02.176Z,1006.26
2018-12-21T07:16:02.171Z,1006.26
2018-12-21T07:17:02.166Z,1006.23
2018-12-21T07:18:02.161Z,1006.23
2018-12-21T07:19:02.183Z,1006.18
2018-12-21T07:20:02.211Z,1006.17
2018-12-21T07:21:02.194Z,1006.12
2018-12-21T07:22:02.183Z,1006.17
2018-12-21T07:23:02.204Z,1006.19
2018-12-21T07:24:02.271Z,1006.13
2018-12-21T07:25:02.192Z,1006.12
2018-12-21T07:26:02.222Z,1006.13
2018-12-21T07:27:02.260Z,1006.06
2018-12-21T07:28:02.355Z,1006.03
2018-12-21T07:29:02.317Z,1006.06
2018-12-21T07:30:02.475Z,1006.08
2018-12-21T07:31:02.281Z,1006.11
2018-12-21T07:32:02.282Z,1006.09
2018-12-21T07:33:02.264Z,1006.10
2018-12-21T07:34:02.259Z,1006.10
2018-12-21T07:35:02.327Z,1006.06
2018-12-21T07:36:08.341Z,1006.06
2018-12-21T07:37:02.272Z,1006.07
2018-12-21T07:38:02.273Z,1006.04
2018-12-21T07:39:02.282Z,1006.03
2018-12-21T07:40:02.294Z,1006.03
2018-12-21T07:41:02.356Z,1006.07
2018-12-21T07:42:03.591Z,1006.07
2018-12-21T07:43:02.625Z,1006.03
2018-12-21T07:44:02.323Z,1006.07
2018-12-21T07:45:02.413Z,1006.04
2018-12-21T07:46:02.364Z,1005.98
2018-12-21T07:47:02.371Z,1005.99
2018-12-21T07:48:02.356Z,1006.00
2018-12-21T07:49:02.344Z,1005.96
2018-12-21T07:50:02.366Z,1005.96
2018-12-21T07:51:02.344Z,1005.96
2018-12-21T07:52:02.386Z,1005.98
2018-12-21T07:53:02.359Z,1005.91
2018-12-21T07:54:02.353Z,1005.90
2018-12-21T07:55:02.367Z,1005.89
2018-12-21T07:56:02.405Z,1005.89
2018-12-21T07:57:02.383Z,1005.92
2018-12-21T07:58:02.407Z,1005.90
2018-12-21T07:59:02.412Z,1005.90
2018-12-21T08:00:02.397Z,1005.89
2018-12-21T08:01:02.459Z,1005.92
2018-12-21T08:02:02.397Z,1005.87
2018-12-21T08:03:02.478Z,1005.83
2018-12-21T08:04:02.403Z,1005.82
2018-12-21T08:05:02.436Z,1005.80
2018-12-21T08:06:02.457Z,1005.85
2018-12-21T08:07:02.455Z,1005.83
2018-12-21T08:08:02.443Z,1005.85
2018-12-21T08:09:02.465Z,1005.82
2018-12-21T08:10:02.598Z,1005.83
2018-12-21T08:11:02.719Z,1005.84
2018-12-21T08:12:02.472Z,1005.80
2018-12-21T08:13:02.505Z,1005.78
2018-12-21T08:14:02.488Z,1005.75
2018-12-21T08:15:02.463Z,1005.74
2018-12-21T08:16:02.488Z,1005.69
2018-12-21T08:17:02.505Z,1005.72
2018-12-21T08:18:02.514Z,1005.71
2018-12-21T08:19:02.584Z,1005.69
2018-12-21T08:20:02.513Z,1005.72
2018-12-21T08:21:02.537Z,1005.70
2018-12-21T08:22:02.497Z,1005.67
2018-12-21T08:23:02.509Z,1005.67
2018-12-21T08:24:02.529Z,1005.68
2018-12-21T08:25:02.559Z,1005.64
2018-12-21T08:26:02.550Z,1005.55
2018-12-21T08:27:02.532Z,1005.57
2018-12-21T08:28:02.561Z,1005.59
2018-12-21T08:29:02.546Z,1005.56
2018-12-21T08:30:02.578Z,1005.48
2018-12-21T08:31:02.599Z,1005.48
2018-12-21T08:32:02.561Z,1005.45
2018-12-21T08:33:02.579Z,1005.48
2018-12-21T08:34:02.562Z,1005.47
2018-12-21T08:35:02.585Z,1005.47
2018-12-21T08:36:02.630Z,1005.45
2018-12-21T08:37:02.623Z,1005.47
2018-12-21T08:38:02.612Z,1005.46
2018-12-21T08:39:02.646Z,1005.42
2018-12-21T08:40:02.622Z,1005.38
2018-12-21T08:41:02.620Z,1005.37
2018-12-21T08:42:02.658Z,1005.31
2018-12-21T08:43:02.631Z,1005.30
2018-12-21T08:44:02.626Z,1005.31
2018-12-21T08:45:02.620Z,1005.27
2018-12-21T08:46:02.646Z,1005.25
2018-12-21T08:47:02.653Z,1005.26
2018-12-21T08:48:02.676Z,1005.25
2018-12-21T08:49:02.724Z,1005.21
2018-12-21T08:50:02.681Z,1005.22
2018-12-21T08:51:02.662Z,1005.18
2018-12-21T08:52:02.721Z,1005.19
2018-12-21T08:53:02.675Z,1005.14
2018-12-21T08:54:02.829Z,1005.13
2018-12-21T08:55:02.699Z,1005.06
2018-12-21T08:56:02.714Z,1005.06
2018-12-21T08:57:02.739Z,1005.08
2018-12-21T08:58:02.713Z,1005.10
2018-12-21T08:59:02.696Z,1005.09
2018-12-21T09:00:02.745Z,1005.10
2018-12-21T09:01:02.748Z,1005.08
2018-12-21T09:02:02.739Z,1005.11
2018-12-21T09:03:02.779Z,1005.09
2018-12-21T09:04:02.765Z,1005.10
2018-12-21T09:05:02.747Z,1005.11
2018-12-21T09:06:02.779Z,1005.11
2018-12-21T09:07:02.776Z,1005.14
2018-12-21T09:08:02.743Z,1005.09
2018-12-21T09:09:02.825Z,1005.09
2018-12-21T09:10:02.807Z,1005.08
2018-12-21T09:11:02.761Z,1005.11
2018-12-21T09:12:02.785Z,1005.05
2018-12-21T09:13:02.841Z,1004.99
2018-12-21T09:14:02.850Z,1005.00
2018-12-21T09:15:02.841Z,1005.03
2018-12-21T09:16:02.889Z,1005.00
2018-12-21T09:17:02.839Z,1004.99
2018-12-21T09:18:02.846Z,1004.96
2018-12-21T09:19:02.848Z,1004.96
2018-12-21T09:20:02.825Z,1004.96
2018-12-21T09:21:02.997Z,1004.93
2018-12-21T09:22:02.855Z,1004.92
2018-12-21T09:23:02.863Z,1004.92
2018-12-21T09:24:02.888Z,1004.90
2018-12-21T09:25:02.918Z,1004.85
2018-12-21T09:26:02.884Z,1004.83
2018-12-21T09:27:02.924Z,1004.79
2018-12-21T09:28:02.888Z,1004.77
2018-12-21T09:29:02.973Z,1004.75
2018-12-21T09:30:03.016Z,1004.74
2018-12-21T09:31:02.976Z,1004.75
2018-12-21T09:32:05.150Z,1004.68
2018-12-21T09:33:03.057Z,1004.68
2018-12-21T09:34:02.994Z,1004.68
2018-12-21T09:35:02.928Z,1004.64
2018-12-21T09:36:02.995Z,1004.62
2018-12-21T09:37:03.014Z,1004.61
2018-12-21T09:38:03.221Z,1004.61
2018-12-21T09:39:03.341Z,1004.60
2018-12-21T09:40:02.949Z,1004.57
2018-12-21T09:41:02.948Z,1004.49
2018-12-21T09:42:02.992Z,1004.47
2018-12-21T09:43:02.992Z,1004.43
2018-12-21T09:44:02.997Z,1004.42
2018-12-21T09:45:02.976Z,1004.43
2018-12-21T09:46:03.014Z,1004.41
2018-12-21T09:47:03.078Z,1004.42
2018-12-21T09:48:03.072Z,1004.43
2018-12-21T09:49:03.047Z,1004.41
2018-12-21T09:50:03.049Z,1004.38
2018-12-21T09:51:03.041Z,1004.38
2018-12-21T09:52:03.003Z,1004.35
2018-12-21T09:53:03.056Z,1004.33
2018-12-21T09:54:09.929Z,1004.31
2018-12-21T09:55:03.060Z,1004.27
2018-12-21T09:56:03.102Z,1004.27
2018-12-21T09:57:03.036Z,1004.26
2018-12-21T09:58:03.158Z,1004.27
2018-12-21T09:59:03.104Z,1004.26
2018-12-21T10:00:03.118Z,1004.24
2018-12-21T10:01:03.186Z,1004.24
2018-12-21T10:02:03.118Z,1004.21
2018-12-21T10:03:03.151Z,1004.17
2018-12-21T10:04:03.092Z,1004.16
2018-12-21T10:05:03.207Z,1004.09
2018-12-21T10:06:03.110Z,1004.11
2018-12-21T10:07:03.310Z,1004.09
2018-12-21T10:08:03.532Z,1004.05
2018-12-21T10:09:03.562Z,1004.07
2018-12-21T10:10:03.339Z,1004.01
2018-12-21T10:11:03.261Z,1004.01
2018-12-21T10:12:03.246Z,1003.98
2018-12-21T10:13:03.240Z,1003.92
2018-12-21T10:14:03.423Z,1003.93
2018-12-21T10:15:03.151Z,1003.88
2018-12-21T10:16:03.532Z,1003.89
2018-12-21T10:17:03.254Z,1003.79
2018-12-21T10:18:03.993Z,1003.74
2018-12-21T10:19:04.449Z,1003.69
2018-12-21T10:20:03.292Z,1003.69
2018-12-21T10:21:03.572Z,1003.70
2018-12-21T10:22:03.289Z,1003.68
2018-12-21T10:23:03.198Z,1003.65
2018-12-21T10:24:03.231Z,1003.63
2018-12-21T10:25:03.415Z,1003.59
2018-12-21T10:26:03.282Z,1003.60
2018-12-21T10:27:03.272Z,1003.55
2018-12-21T10:28:03.330Z,1003.53
2018-12-21T10:29:03.587Z,1003.52
2018-12-21T10:30:05.117Z,1003.51
2018-12-21T10:31:03.967Z,1003.41
2018-12-21T10:32:03.403Z,1003.44
2018-12-21T10:33:03.847Z,1003.41
2018-12-21T10:34:03.292Z,1003.37
2018-12-21T10:35:03.277Z,1003.35
2018-12-21T10:36:03.284Z,1003.33
2018-12-21T10:37:03.313Z,1003.33
2018-12-21T10:38:03.354Z,1003.26
2018-12-21T10:39:03.349Z,1003.29
2018-12-21T10:40:03.299Z,1003.26
2018-12-21T10:41:03.342Z,1003.19
2018-12-21T10:42:03.395Z,1003.14
2018-12-21T10:43:03.353Z,1003.11
2018-12-21T10:44:03.352Z,1003.02
2018-12-21T10:45:03.519Z,1003.00
2018-12-21T10:46:03.375Z,1003.00
2018-12-21T10:47:04.159Z,1002.93
2018-12-21T10:48:03.719Z,1002.92
2018-12-21T10:49:03.384Z,1002.91
2018-12-21T10:50:03.349Z,1002.86
2018-12-21T10:51:03.381Z,1002.84
2018-12-21T10:52:03.938Z,1002.85
2018-12-21T10:53:03.368Z,1002.78
2018-12-21T10:54:03.388Z,1002.74
2018-12-21T10:55:03.367Z,1002.74
2018-12-21T10:56:05.335Z,1002.67
2018-12-21T10:57:03.391Z,1002.66
2018-12-21T10:58:03.409Z,1002.63
2018-12-21T10:59:03.465Z,1002.62
2018-12-21T11:00:03.422Z,1002.60
2018-12-21T11:01:03.407Z,1002.58
2018-12-21T11:02:03.424Z,1002.54
2018-12-21T11:03:03.435Z,1002.52
2018-12-21T11:04:03.449Z,1002.51
2018-12-21T11:05:04.975Z,1002.47
2018-12-21T11:06:03.513Z,1002.43
2018-12-21T11:07:04.454Z,1002.40
2018-12-21T11:08:03.689Z,1002.38
2018-12-21T11:09:03.473Z,1002.40
2018-12-21T11:10:03.511Z,1002.34
2018-12-21T11:11:04.111Z,1002.34
2018-12-21T11:12:04.296Z,1002.29
2018-12-21T11:13:03.746Z,1002.29
2018-12-21T11:14:03.666Z,1002.29
2018-12-21T11:15:03.525Z,1002.25
2018-12-21T11:16:04.280Z,1002.17
2018-12-21T11:17:03.694Z,1002.15
2018-12-21T11:18:03.600Z,1002.14
2018-12-21T11:20:03.613Z,1002.06
2018-12-21T11:21:03.635Z,1002.05
2018-12-21T11:22:03.594Z,1002.08
2018-12-21T11:23:03.570Z,1002.02
2018-12-21T11:24:03.833Z,1001.96
2018-12-21T11:25:03.603Z,1001.91
2018-12-21T11:26:03.607Z,1001.87
2018-12-21T11:27:03.605Z,1001.91
2018-12-21T11:28:03.646Z,1001.84
2018-12-21T11:29:03.645Z,1001.83
2018-12-21T11:30:06.344Z,1001.75
2018-12-21T11:31:03.623Z,1001.69
2018-12-21T11:32:03.812Z,1001.73
2018-12-21T11:33:03.700Z,1001.67
2018-12-21T11:34:06.862Z,1001.68
2018-12-21T11:35:04.512Z,1001.61
2018-12-21T11:36:04.513Z,1001.60
2018-12-21T11:37:04.844Z,1001.55
2018-12-21T11:38:04.205Z,1001.55
2018-12-21T11:39:07.890Z,1001.53
2018-12-21T11:40:05.910Z,1001.53
2018-12-21T11:41:04.307Z,1001.47
2018-12-21T11:42:03.789Z,1001.44
2018-12-21T11:43:04.321Z,1001.40
2018-12-21T11:44:03.750Z,1001.36
2018-12-21T11:45:03.734Z,1001.30
2018-12-21T11:46:05.336Z,1001.30
2018-12-21T11:47:05.895Z,1001.27
2018-12-21T11:48:03.943Z,1001.19
2018-12-21T11:49:03.767Z,1001.10
2018-12-21T11:50:04.337Z,1001.10
2018-12-21T11:51:05.337Z,1001.07
2018-12-21T11:52:03.743Z,1001.04
2018-12-21T11:53:05.231Z,1001.02
2018-12-21T11:54:09.578Z,1001.00
2018-12-21T11:55:03.881Z,1000.94
2018-12-21T11:56:04.216Z,1000.88
2018-12-21T11:57:04.008Z,1000.89
2018-12-21T11:58:04.022Z,1000.81
2018-12-21T11:59:03.849Z,1000.79
2018-12-21T12:01:04.012Z,1000.68
2018-12-21T12:02:03.810Z,1000.74
2018-12-21T12:03:05.855Z,1000.74
2018-12-21T12:04:05.345Z,1000.71
2018-12-21T12:05:03.843Z,1000.73
2018-12-21T12:06:04.145Z,1000.66
2018-12-21T12:07:04.903Z,1000.66
2018-12-21T12:08:04.860Z,1000.65
2018-12-21T12:09:06.339Z,1000.60
2018-12-21T12:10:04.003Z,1000.58
2018-12-21T12:11:04.478Z,1000.59
2018-12-21T12:12:04.557Z,1000.60
2018-12-21T12:13:04.869Z,1000.52
2018-12-21T12:14:03.935Z,1000.55
2018-12-21T12:15:03.929Z,1000.52
2018-12-21T12:16:03.914Z,1000.54
2018-12-21T12:17:04.054Z,1000.50
2018-12-21T12:18:03.952Z,1000.50
2018-12-21T12:19:03.977Z,1000.52
2018-12-21T12:20:03.932Z,1000.48
2018-12-21T12:21:03.974Z,1000.49
2018-12-21T12:22:03.921Z,1000.49
2018-12-21T12:23:04.081Z,1000.50
2018-12-21T12:24:03.949Z,1000.50
2018-12-21T12:25:03.926Z,1000.48
2018-12-21T12:26:03.973Z,1000.50
2018-12-21T12:27:03.986Z,1000.51
2018-12-21T12:28:04.024Z,1000.50
2018-12-21T12:29:03.942Z,1000.45
2018-12-21T12:30:03.965Z,1000.39
2018-12-21T12:31:03.988Z,1000.34
2018-12-21T12:32:04.007Z,1000.29
2018-12-21T12:33:03.975Z,1000.31
2018-12-21T12:34:04.021Z,1000.25
2018-12-21T12:35:03.989Z,1000.23
2018-12-21T12:36:04.047Z,1000.26
2018-12-21T12:37:03.993Z,1000.25
2018-12-21T12:38:04.023Z,1000.25
2018-12-21T12:39:04.043Z,1000.22
2018-12-21T12:40:04.014Z,1000.23
2018-12-21T12:41:06.794Z,1000.22
2018-12-21T12:42:04.052Z,1000.20
2018-12-21T12:43:04.068Z,1000.17
2018-12-21T12:44:04.142Z,1000.17
2018-12-21T12:45:04.039Z,1000.15
2018-12-21T12:46:04.057Z,1000.12
2018-12-21T12:47:04.087Z,1000.10
2018-12-21T12:48:04.105Z,1000.06
2018-12-21T12:49:04.088Z,1000.08
2018-12-21T12:50:04.113Z,1000.07
2018-12-21T12:51:04.286Z,1000.03
2018-12-21T12:52:04.106Z,1000.00
2018-12-21T12:53:04.147Z,999.95
2018-12-21T12:54:04.117Z,999.95
2018-12-21T12:55:04.111Z,999.90
2018-12-21T12:56:05.293Z,999.87
2018-12-21T12:57:04.130Z,999.89
2018-12-21T12:58:04.135Z,999.82
2018-12-21T12:59:04.168Z,999.82
2018-12-21T13:00:04.175Z,999.76
2018-12-21T13:01:04.158Z,999.77
2018-12-21T13:02:04.159Z,999.75
2018-12-21T13:03:04.160Z,999.71
2018-12-21T13:04:04.177Z,999.69
2018-12-21T13:05:04.180Z,999.72
2018-12-21T13:06:04.212Z,999.73
2018-12-21T13:07:04.521Z,999.66
2018-12-21T13:08:04.871Z,999.64
2018-12-21T13:09:04.279Z,999.62
2018-12-21T13:10:04.215Z,999.62
2018-12-21T13:11:04.273Z,999.55
2018-12-21T13:12:04.254Z,999.49
2018-12-21T13:13:04.344Z,999.52
2018-12-21T13:14:04.228Z,999.48
2018-12-21T13:15:04.233Z,999.48
2018-12-21T13:16:04.389Z,999.42
2018-12-21T13:17:04.283Z,999.40
2018-12-21T13:18:04.258Z,999.36
2018-12-21T13:19:04.266Z,999.34
2018-12-21T13:20:04.289Z,999.32
2018-12-21T13:21:04.266Z,999.26
2018-12-21T13:22:04.491Z,999.29
2018-12-21T13:23:04.301Z,999.22
2018-12-21T13:24:04.306Z,999.21
2018-12-21T13:25:11.346Z,999.16
2018-12-21T13:26:04.334Z,999.14
2018-12-21T13:27:04.291Z,999.11
2018-12-21T13:28:04.360Z,999.04
2018-12-21T13:29:04.313Z,999.05
2018-12-21T13:30:04.434Z,999.01
2018-12-21T13:31:04.349Z,998.99
2018-12-21T13:32:04.347Z,998.96
2018-12-21T13:33:04.479Z,998.96
2018-12-21T13:34:04.357Z,998.91
2018-12-21T13:35:04.389Z,998.88
2018-12-21T13:36:04.377Z,998.81
2018-12-21T13:37:04.371Z,998.82
2018-12-21T13:38:04.448Z,998.75
2018-12-21T13:39:04.404Z,998.75
2018-12-21T13:40:04.370Z,998.71
2018-12-21T13:41:04.404Z,998.61
2018-12-21T13:42:04.569Z,998.62
2018-12-21T13:43:04.530Z,998.57
2018-12-21T13:44:04.649Z,998.51
2018-12-21T13:45:04.468Z,998.47
2018-12-21T13:46:04.411Z,998.45
2018-12-21T13:47:04.413Z,998.40
2018-12-21T13:48:04.535Z,998.34
2018-12-21T13:49:04.425Z,998.38
2018-12-21T13:50:04.463Z,998.33
2018-12-21T13:51:04.468Z,998.37
2018-12-21T13:52:04.453Z,998.33
2018-12-21T13:53:04.521Z,998.32
2018-12-21T13:54:04.478Z,998.32
2018-12-21T13:55:04.447Z,998.28
2018-12-21T13:56:04.470Z,998.32
2018-12-21T13:57:04.585Z,998.33
2018-12-21T13:58:06.440Z,998.28
2018-12-21T13:59:04.601Z,998.29
2018-12-21T14:00:04.538Z,998.27
2018-12-21T14:01:04.485Z,998.26
2018-12-21T14:02:04.495Z,998.26
2018-12-21T14:03:04.768Z,998.19
2018-12-21T14:04:04.521Z,998.18
2018-12-21T14:05:05.313Z,998.16
2018-12-21T14:06:04.515Z,998.16
2018-12-21T14:07:04.664Z,998.18
2018-12-21T14:08:04.659Z,998.20
2018-12-21T14:09:04.566Z,998.23
2018-12-21T14:10:04.607Z,998.20
2018-12-21T14:11:04.578Z,998.23
2018-12-21T14:12:04.589Z,998.20
2018-12-21T14:13:04.612Z,998.16
2018-12-21T14:14:04.595Z,998.10
2018-12-21T14:15:04.637Z,998.06
2018-12-21T14:16:04.714Z,998.04
2018-12-21T14:17:04.588Z,997.98
2018-12-21T14:18:05.000Z,998.02
2018-12-21T14:19:04.652Z,997.99
2018-12-21T14:20:05.358Z,997.99
2018-12-21T14:21:04.854Z,997.97
2018-12-21T14:22:04.668Z,997.94
2018-12-21T14:23:04.673Z,997.91
2018-12-21T14:24:04.701Z,997.81
2018-12-21T14:25:04.878Z,997.83
2018-12-21T14:26:04.780Z,997.80
2018-12-21T14:27:04.970Z,997.82
2018-12-21T14:28:04.638Z,997.84
2018-12-21T14:29:04.648Z,997.82
2018-12-21T14:30:04.652Z,997.79
2018-12-21T14:31:04.714Z,997.72
2018-12-21T14:32:04.687Z,997.68
2018-12-21T14:33:04.752Z,997.63
2018-12-21T14:34:04.701Z,997.60
2018-12-21T14:35:04.676Z,997.56
2018-12-21T14:36:05.363Z,997.55
2018-12-21T14:37:04.794Z,997.50
2018-12-21T14:38:04.720Z,997.48
2018-12-21T14:39:04.735Z,997.50
2018-12-21T14:40:04.745Z,997.49
2018-12-21T14:41:04.749Z,997.48
2018-12-21T14:42:04.745Z,997.41
2018-12-21T14:43:04.821Z,997.42
2018-12-21T14:44:04.747Z,997.43
2018-12-21T14:45:04.750Z,997.40
2018-12-21T14:46:04.792Z,997.37
2018-12-21T14:47:04.766Z,997.35
2018-12-21T14:48:04.775Z,997.35
2018-12-21T14:49:04.784Z,997.28
2018-12-21T14:50:04.837Z,997.24
2018-12-21T14:51:04.769Z,997.24
2018-12-21T14:52:04.795Z,997.19
2018-12-21T14:53:04.801Z,997.14
2018-12-21T14:54:04.810Z,997.09
2018-12-21T14:55:04.814Z,997.07
2018-12-21T14:56:04.812Z,997.06
2018-12-21T14:57:04.844Z,996.99
2018-12-21T14:58:04.856Z,996.93
2018-12-21T14:59:04.907Z,996.90
2018-12-21T15:00:04.833Z,996.89
2018-12-21T15:01:04.866Z,996.85
2018-12-21T15:02:05.649Z,996.80
2018-12-21T15:03:04.900Z,996.81
2018-12-21T15:04:04.918Z,996.79
2018-12-21T15:05:04.861Z,996.75
2018-12-21T15:06:04.900Z,996.73
2018-12-21T15:07:04.864Z,996.74
2018-12-21T15:08:04.888Z,996.71
2018-12-21T15:09:04.890Z,996.70
2018-12-21T15:10:05.075Z,996.63
2018-12-21T15:11:04.933Z,996.59
2018-12-21T15:12:04.972Z,996.51
2018-12-21T15:13:05.410Z,996.51
2018-12-21T15:14:04.949Z,996.49
2018-12-21T15:15:04.917Z,996.49
2018-12-21T15:16:04.951Z,996.49
2018-12-21T15:17:04.985Z,996.47
2018-12-21T15:18:04.940Z,996.43
2018-12-21T15:19:07.344Z,996.40
2018-12-21T15:20:07.754Z,996.35
2018-12-21T15:21:05.133Z,996.36
2018-12-21T15:22:05.076Z,996.33
2018-12-21T15:23:05.021Z,996.29
2018-12-21T15:24:05.196Z,996.27
2018-12-21T15:25:05.987Z,996.30
2018-12-21T15:26:06.875Z,996.29
2018-12-21T15:27:05.034Z,996.25
2018-12-21T15:28:04.980Z,996.19